sensor_id;sensor_type;location;lat;lon;timestamp;P1;durP1;ratioP1;P2;durP2;ratioP2
140;SDS011;65;48.778;9.160;2024-03-23T00:53:28;5.95;;;2.88;;
140;SDS011;65;48.778;9.160;2024-03-23T00:56:14;10.57;;;3.13;;
140;SDS011;65;48.778;9.160;2024-03-23T00:59:00;4.32;;;2.35;;
140;SDS011;65;48.778;9.160;2024-03-23T01:01:45;5.50;;;2.33;;
140;SDS011;65;48.778;9.160;2024-03-23T01:04:31;3.58;;;2.08;;
140;SDS011;65;48.778;9.160;2024-03-23T01:07:17;2.90;;;1.73;;
140;SDS011;65;48.778;9.160;2024-03-23T01:10:03;3.42;;;1.90;;
140;SDS011;65;48.778;9.160;2024-03-23T01:12:49;3.28;;;1.65;;
140;SDS011;65;48.778;9.160;2024-03-23T01:15:35;2.67;;;1.70;;
140;SDS011;65;48.778;9.160;2024-03-23T01:18:21;4.53;;;2.10;;
140;SDS011;65;48.778;9.160;2024-03-23T01:21:08;2.85;;;1.60;;
140;SDS011;65;48.778;9.160;2024-03-23T01:23:54;4.90;;;1.67;;
140;SDS011;65;48.778;9.160;2024-03-23T01:26:39;2.88;;;1.67;;
140;SDS011;65;48.778;9.160;2024-03-23T01:29:25;2.45;;;1.70;;
140;SDS011;65;48.778;9.160;2024-03-23T01:32:11;3.63;;;1.88;;
140;SDS011;65;48.778;9.160;2024-03-23T01:34:57;2.45;;;1.50;;
140;SDS011;65;48.778;9.160;2024-03-23T01:37:43;3.25;;;1.58;;
140;SDS011;65;48.778;9.160;2024-03-23T01:40:32;3.58;;;2.03;;
140;SDS011;65;48.778;9.160;2024-03-23T01:43:17;3.63;;;1.85;;
140;SDS011;65;48.778;9.160;2024-03-23T01:46:03;2.90;;;1.73;;
140;SDS011;65;48.778;9.160;2024-03-23T01:48:49;4.43;;;1.73;;
140;SDS011;65;48.778;9.160;2024-03-23T01:51:36;3.55;;;1.73;;
140;SDS011;65;48.778;9.160;2024-03-23T01:54:23;3.58;;;2.00;;
140;SDS011;65;48.778;9.160;2024-03-23T01:57:09;3.13;;;1.88;;
140;SDS011;65;48.778;9.160;2024-03-23T01:59:55;5.70;;;2.10;;
140;SDS011;65;48.778;9.160;2024-03-23T02:02:43;3.03;;;1.88;;
140;SDS011;65;48.778;9.160;2024-03-23T02:05:29;4.00;;;1.92;;
140;SDS011;65;48.778;9.160;2024-03-23T02:08:16;3.92;;;2.10;;
140;SDS011;65;48.778;9.160;2024-03-23T02:11:03;3.90;;;1.83;;
140;SDS011;65;48.778;9.160;2024-03-23T02:13:49;2.78;;;1.67;;
140;SDS011;65;48.778;9.160;2024-03-23T02:16:35;5.68;;;1.75;;
140;SDS011;65;48.778;9.160;2024-03-23T02:19:20;3.58;;;1.88;;
140;SDS011;65;48.778;9.160;2024-03-23T02:22:06;3.30;;;1.83;;
140;SDS011;65;48.778;9.160;2024-03-23T02:24:52;4.90;;;2.13;;
140;SDS011;65;48.778;9.160;2024-03-23T02:27:37;3.10;;;1.80;;
140;SDS011;65;48.778;9.160;2024-03-23T02:30:25;2.90;;;1.63;;
140;SDS011;65;48.778;9.160;2024-03-23T02:33:11;3.70;;;2.00;;
140;SDS011;65;48.778;9.160;2024-03-23T02:35:57;3.20;;;1.90;;
140;SDS011;65;48.778;9.160;2024-03-23T02:38:43;3.97;;;2.15;;
140;SDS011;65;48.778;9.160;2024-03-23T02:41:29;4.38;;;1.83;;
140;SDS011;65;48.778;9.160;2024-03-23T02:44:14;5.78;;;1.98;;
140;SDS011;65;48.778;9.160;2024-03-23T02:47:00;3.80;;;2.08;;
140;SDS011;65;48.778;9.160;2024-03-23T02:49:46;2.30;;;1.52;;
140;SDS011;65;48.778;9.160;2024-03-23T02:52:32;3.33;;;2.00;;
140;SDS011;65;48.778;9.160;2024-03-23T02:55:17;3.25;;;1.90;;
140;SDS011;65;48.778;9.160;2024-03-23T02:58:03;3.45;;;1.70;;
140;SDS011;65;48.778;9.160;2024-03-23T03:00:49;2.47;;;1.65;;
140;SDS011;65;48.778;9.160;2024-03-23T03:03:35;4.18;;;1.88;;
140;SDS011;65;48.778;9.160;2024-03-23T03:06:24;3.00;;;1.75;;
140;SDS011;65;48.778;9.160;2024-03-23T03:09:11;3.50;;;1.50;;
140;SDS011;65;48.778;9.160;2024-03-23T03:11:57;4.32;;;1.80;;
140;SDS011;65;48.778;9.160;2024-03-23T03:14:42;3.92;;;1.85;;
140;SDS011;65;48.778;9.160;2024-03-23T03:17:28;3.47;;;1.50;;
140;SDS011;65;48.778;9.160;2024-03-23T03:20:14;3.33;;;1.75;;
140;SDS011;65;48.778;9.160;2024-03-23T03:23:01;3.08;;;1.77;;
140;SDS011;65;48.778;9.160;2024-03-23T03:25:46;3.22;;;1.90;;
140;SDS011;65;48.778;9.160;2024-03-23T03:28:32;6.07;;;1.83;;
140;SDS011;65;48.778;9.160;2024-03-23T03:31:18;3.55;;;1.80;;
140;SDS011;65;48.778;9.160;2024-03-23T03:34:04;2.22;;;1.60;;
140;SDS011;65;48.778;9.160;2024-03-23T03:36:50;3.00;;;1.50;;
140;SDS011;65;48.778;9.160;2024-03-23T03:39:36;2.45;;;1.50;;
140;SDS011;65;48.778;9.160;2024-03-23T03:42:22;5.97;;;1.80;;
140;SDS011;65;48.778;9.160;2024-03-23T03:45:08;2.97;;;1.50;;
140;SDS011;65;48.778;9.160;2024-03-23T03:47:54;2.38;;;1.63;;
140;SDS011;65;48.778;9.160;2024-03-23T03:50:39;2.95;;;1.80;;
140;SDS011;65;48.778;9.160;2024-03-23T03:53:25;3.00;;;1.70;;
140;SDS011;65;48.778;9.160;2024-03-23T03:56:11;3.20;;;1.73;;
140;SDS011;65;48.778;9.160;2024-03-23T03:58:57;2.15;;;1.50;;
140;SDS011;65;48.778;9.160;2024-03-23T04:01:43;4.15;;;1.70;;
140;SDS011;65;48.778;9.160;2024-03-23T04:04:29;7.22;;;1.75;;
140;SDS011;65;48.778;9.160;2024-03-23T04:07:15;2.65;;;1.48;;
140;SDS011;65;48.778;9.160;2024-03-23T04:10:00;4.15;;;2.00;;
140;SDS011;65;48.778;9.160;2024-03-23T04:12:48;5.20;;;1.60;;
140;SDS011;65;48.778;9.160;2024-03-23T04:15:33;4.90;;;1.90;;
140;SDS011;65;48.778;9.160;2024-03-23T04:18:19;3.55;;;1.80;;
140;SDS011;65;48.778;9.160;2024-03-23T04:21:05;3.83;;;2.00;;
140;SDS011;65;48.778;9.160;2024-03-23T04:23:50;3.28;;;1.73;;
140;SDS011;65;48.778;9.160;2024-03-23T04:26:40;5.15;;;1.77;;
140;SDS011;65;48.778;9.160;2024-03-23T04:29:27;3.17;;;1.60;;
140;SDS011;65;48.778;9.160;2024-03-23T04:32:12;5.43;;;2.22;;
140;SDS011;65;48.778;9.160;2024-03-23T04:34:59;3.05;;;1.65;;
140;SDS011;65;48.778;9.160;2024-03-23T04:37:45;2.58;;;1.70;;
140;SDS011;65;48.778;9.160;2024-03-23T04:40:31;2.38;;;1.45;;
140;SDS011;65;48.778;9.160;2024-03-23T04:43:16;5.78;;;1.90;;
140;SDS011;65;48.778;9.160;2024-03-23T04:46:02;3.55;;;1.90;;
140;SDS011;65;48.778;9.160;2024-03-23T04:48:48;4.00;;;1.90;;
140;SDS011;65;48.778;9.160;2024-03-23T04:51:37;5.53;;;2.70;;
140;SDS011;65;48.778;9.160;2024-03-23T04:54:31;3.88;;;2.40;;
140;SDS011;65;48.778;9.160;2024-03-23T04:57:22;4.63;;;2.50;;
140;SDS011;65;48.778;9.160;2024-03-23T05:00:08;4.88;;;2.60;;
140;SDS011;65;48.778;9.160;2024-03-23T05:03:02;5.20;;;2.55;;
140;SDS011;65;48.778;9.160;2024-03-23T05:05:49;4.97;;;2.63;;
140;SDS011;65;48.778;9.160;2024-03-23T05:08:36;7.20;;;3.85;;
140;SDS011;65;48.778;9.160;2024-03-23T05:11:22;8.23;;;4.07;;
140;SDS011;65;48.778;9.160;2024-03-23T05:14:07;7.32;;;4.18;;
140;SDS011;65;48.778;9.160;2024-03-23T05:16:53;9.10;;;5.05;;
140;SDS011;65;48.778;9.160;2024-03-23T05:19:40;10.50;;;4.35;;
140;SDS011;65;48.778;9.160;2024-03-23T05:22:25;9.55;;;5.60;;
140;SDS011;65;48.778;9.160;2024-03-23T05:25:12;12.88;;;5.95;;
140;SDS011;65;48.778;9.160;2024-03-23T05:27:58;10.05;;;5.43;;
140;SDS011;65;48.778;9.160;2024-03-23T05:30:49;12.40;;;6.10;;
140;SDS011;65;48.778;9.160;2024-03-23T05:33:36;9.05;;;5.10;;
140;SDS011;65;48.778;9.160;2024-03-23T05:36:25;10.95;;;5.72;;
140;SDS011;65;48.778;9.160;2024-03-23T05:39:11;10.90;;;6.35;;
140;SDS011;65;48.778;9.160;2024-03-23T05:41:56;11.18;;;5.65;;
140;SDS011;65;48.778;9.160;2024-03-23T05:44:45;10.80;;;5.35;;
140;SDS011;65;48.778;9.160;2024-03-23T05:47:31;11.52;;;5.57;;
140;SDS011;65;48.778;9.160;2024-03-23T05:50:17;10.30;;;5.97;;
140;SDS011;65;48.778;9.160;2024-03-23T05:53:03;12.32;;;6.25;;
140;SDS011;65;48.778;9.160;2024-03-23T05:55:50;10.15;;;5.50;;
140;SDS011;65;48.778;9.160;2024-03-23T05:58:39;7.22;;;4.20;;
140;SDS011;65;48.778;9.160;2024-03-23T06:01:24;9.43;;;3.88;;
140;SDS011;65;48.778;9.160;2024-03-23T06:04:15;7.03;;;2.78;;
140;SDS011;65;48.778;9.160;2024-03-23T06:07:01;4.72;;;2.60;;
140;SDS011;65;48.778;9.160;2024-03-23T06:09:50;5.50;;;2.40;;
140;SDS011;65;48.778;9.160;2024-03-23T06:12:36;5.68;;;3.13;;
140;SDS011;65;48.778;9.160;2024-03-23T06:15:22;4.53;;;2.45;;
140;SDS011;65;48.778;9.160;2024-03-23T06:18:08;5.93;;;3.10;;
140;SDS011;65;48.778;9.160;2024-03-23T06:20:54;4.53;;;2.50;;
140;SDS011;65;48.778;9.160;2024-03-23T06:23:41;3.65;;;1.77;;
140;SDS011;65;48.778;9.160;2024-03-23T06:26:36;5.70;;;1.92;;
140;SDS011;65;48.778;9.160;2024-03-23T06:29:22;4.30;;;1.88;;
140;SDS011;65;48.778;9.160;2024-03-23T06:32:08;2.78;;;1.52;;
140;SDS011;65;48.778;9.160;2024-03-23T06:34:56;3.67;;;1.50;;
140;SDS011;65;48.778;9.160;2024-03-23T06:37:42;1.58;;;0.75;;
140;SDS011;65;48.778;9.160;2024-03-23T06:40:31;1.90;;;0.98;;
140;SDS011;65;48.778;9.160;2024-03-23T06:43:17;0.90;;;0.50;;
140;SDS011;65;48.778;9.160;2024-03-23T06:46:03;0.63;;;0.60;;
140;SDS011;65;48.778;9.160;2024-03-23T06:48:53;1.33;;;0.50;;
140;SDS011;65;48.778;9.160;2024-03-23T06:51:39;0.60;;;0.60;;
140;SDS011;65;48.778;9.160;2024-03-23T06:54:26;0.70;;;0.35;;
140;SDS011;65;48.778;9.160;2024-03-23T06:57:12;0.43;;;0.32;;
140;SDS011;65;48.778;9.160;2024-03-23T06:59:58;0.40;;;0.32;;
140;SDS011;65;48.778;9.160;2024-03-23T07:02:45;0.77;;;0.55;;
140;SDS011;65;48.778;9.160;2024-03-23T07:05:31;0.45;;;0.40;;
140;SDS011;65;48.778;9.160;2024-03-23T07:08:17;0.93;;;0.55;;
140;SDS011;65;48.778;9.160;2024-03-23T07:11:07;0.30;;;0.30;;
140;SDS011;65;48.778;9.160;2024-03-23T07:13:56;0.50;;;0.40;;
140;SDS011;65;48.778;9.160;2024-03-23T07:16:42;0.25;;;0.25;;
140;SDS011;65;48.778;9.160;2024-03-23T07:19:27;0.20;;;0.20;;
140;SDS011;65;48.778;9.160;2024-03-23T07:22:13;0.38;;;0.28;;
140;SDS011;65;48.778;9.160;2024-03-23T07:25:00;0.15;;;0.15;;
140;SDS011;65;48.778;9.160;2024-03-23T07:27:46;0.25;;;0.25;;
140;SDS011;65;48.778;9.160;2024-03-23T07:30:32;0.57;;;0.40;;
140;SDS011;65;48.778;9.160;2024-03-23T07:33:18;0.60;;;0.32;;
140;SDS011;65;48.778;9.160;2024-03-23T07:36:04;0.50;;;0.40;;
140;SDS011;65;48.778;9.160;2024-03-23T07:38:50;0.30;;;0.30;;
140;SDS011;65;48.778;9.160;2024-03-23T07:41:36;0.30;;;0.30;;
140;SDS011;65;48.778;9.160;2024-03-23T07:44:22;0.22;;;0.20;;
140;SDS011;65;48.778;9.160;2024-03-23T07:47:08;0.40;;;0.30;;
140;SDS011;65;48.778;9.160;2024-03-23T07:49:53;1.50;;;0.28;;
140;SDS011;65;48.778;9.160;2024-03-23T07:52:39;0.17;;;0.17;;
140;SDS011;65;48.778;9.160;2024-03-23T07:55:25;0.35;;;0.30;;
140;SDS011;65;48.778;9.160;2024-03-23T07:58:10;0.40;;;0.35;;
140;SDS011;65;48.778;9.160;2024-03-23T08:01:01;0.30;;;0.30;;
140;SDS011;65;48.778;9.160;2024-03-23T08:03:55;1.02;;;0.50;;
140;SDS011;65;48.778;9.160;2024-03-23T08:06:41;0.30;;;0.28;;
140;SDS011;65;48.778;9.160;2024-03-23T08:09:27;0.52;;;0.38;;
140;SDS011;65;48.778;9.160;2024-03-23T08:12:12;0.55;;;0.38;;
140;SDS011;65;48.778;9.160;2024-03-23T08:14:58;0.45;;;0.10;;
140;SDS011;65;48.778;9.160;2024-03-23T08:17:44;0.75;;;0.52;;
140;SDS011;65;48.778;9.160;2024-03-23T08:20:29;0.55;;;0.47;;
140;SDS011;65;48.778;9.160;2024-03-23T08:23:15;1.65;;;0.80;;
140;SDS011;65;48.778;9.160;2024-03-23T08:26:02;0.60;;;0.57;;
140;SDS011;65;48.778;9.160;2024-03-23T08:28:49;0.85;;;0.75;;
140;SDS011;65;48.778;9.160;2024-03-23T08:31:34;0.77;;;0.60;;
140;SDS011;65;48.778;9.160;2024-03-23T08:34:20;2.40;;;0.45;;
140;SDS011;65;48.778;9.160;2024-03-23T08:37:06;0.82;;;0.52;;
140;SDS011;65;48.778;9.160;2024-03-23T08:39:51;1.00;;;0.80;;
140;SDS011;65;48.778;9.160;2024-03-23T08:42:38;1.35;;;0.80;;
140;SDS011;65;48.778;9.160;2024-03-23T08:45:24;1.35;;;0.70;;
140;SDS011;65;48.778;9.160;2024-03-23T08:48:10;1.15;;;0.55;;
140;SDS011;65;48.778;9.160;2024-03-23T08:51:02;1.48;;;0.85;;
140;SDS011;65;48.778;9.160;2024-03-23T08:53:49;1.05;;;0.90;;
140;SDS011;65;48.778;9.160;2024-03-23T08:56:35;0.80;;;0.60;;
140;SDS011;65;48.778;9.160;2024-03-23T08:59:20;2.70;;;0.93;;
140;SDS011;65;48.778;9.160;2024-03-23T09:02:06;1.77;;;0.85;;
140;SDS011;65;48.778;9.160;2024-03-23T09:04:52;0.52;;;0.50;;
140;SDS011;65;48.778;9.160;2024-03-23T09:07:38;0.98;;;0.70;;
140;SDS011;65;48.778;9.160;2024-03-23T09:10:34;0.88;;;0.75;;
140;SDS011;65;48.778;9.160;2024-03-23T09:13:22;2.55;;;0.93;;
140;SDS011;65;48.778;9.160;2024-03-23T09:16:08;1.63;;;0.98;;
140;SDS011;65;48.778;9.160;2024-03-23T09:18:55;4.43;;;1.42;;
140;SDS011;65;48.778;9.160;2024-03-23T09:21:40;1.77;;;1.05;;
140;SDS011;65;48.778;9.160;2024-03-23T09:24:26;7.10;;;1.70;;
140;SDS011;65;48.778;9.160;2024-03-23T09:27:12;1.77;;;1.13;;
140;SDS011;65;48.778;9.160;2024-03-23T09:29:58;3.53;;;1.10;;
140;SDS011;65;48.778;9.160;2024-03-23T09:32:44;4.22;;;1.50;;
140;SDS011;65;48.778;9.160;2024-03-23T09:35:30;3.13;;;1.35;;
140;SDS011;65;48.778;9.160;2024-03-23T09:38:16;3.00;;;1.40;;
140;SDS011;65;48.778;9.160;2024-03-23T09:41:06;8.77;;;2.05;;
140;SDS011;65;48.778;9.160;2024-03-23T09:43:53;10.07;;;2.03;;
140;SDS011;65;48.778;9.160;2024-03-23T09:46:39;4.38;;;1.75;;
140;SDS011;65;48.778;9.160;2024-03-23T09:49:25;4.82;;;1.92;;
140;SDS011;65;48.778;9.160;2024-03-23T09:52:11;6.40;;;1.77;;
140;SDS011;65;48.778;9.160;2024-03-23T09:54:57;3.85;;;1.70;;
140;SDS011;65;48.778;9.160;2024-03-23T09:57:43;2.60;;;1.30;;
140;SDS011;65;48.778;9.160;2024-03-23T10:00:29;4.00;;;1.55;;
140;SDS011;65;48.778;9.160;2024-03-23T10:03:15;5.53;;;1.70;;
140;SDS011;65;48.778;9.160;2024-03-23T10:06:01;6.60;;;2.10;;
140;SDS011;65;48.778;9.160;2024-03-23T10:08:48;4.13;;;1.60;;
140;SDS011;65;48.778;9.160;2024-03-23T10:11:34;4.82;;;1.60;;
140;SDS011;65;48.778;9.160;2024-03-23T10:14:28;5.90;;;1.98;;
140;SDS011;65;48.778;9.160;2024-03-23T10:17:16;2.80;;;1.80;;
140;SDS011;65;48.778;9.160;2024-03-23T10:20:09;4.53;;;1.85;;
140;SDS011;65;48.778;9.160;2024-03-23T10:22:56;4.65;;;1.63;;
140;SDS011;65;48.778;9.160;2024-03-23T10:25:42;3.45;;;1.73;;
140;SDS011;65;48.778;9.160;2024-03-23T10:28:28;5.20;;;1.70;;
140;SDS011;65;48.778;9.160;2024-03-23T10:31:14;4.65;;;1.60;;
140;SDS011;65;48.778;9.160;2024-03-23T10:33:59;3.25;;;1.55;;
140;SDS011;65;48.778;9.160;2024-03-23T10:36:46;6.72;;;2.00;;
140;SDS011;65;48.778;9.160;2024-03-23T10:39:33;2.60;;;1.40;;
140;SDS011;65;48.778;9.160;2024-03-23T10:42:22;6.50;;;1.80;;
140;SDS011;65;48.778;9.160;2024-03-23T10:45:08;7.43;;;2.00;;
140;SDS011;65;48.778;9.160;2024-03-23T10:47:54;5.57;;;1.60;;
140;SDS011;65;48.778;9.160;2024-03-23T10:50:40;8.13;;;2.08;;
140;SDS011;65;48.778;9.160;2024-03-23T10:53:26;7.72;;;1.60;;
140;SDS011;65;48.778;9.160;2024-03-23T10:56:13;8.43;;;2.20;;
140;SDS011;65;48.778;9.160;2024-03-23T10:59:00;6.28;;;1.73;;
140;SDS011;65;48.778;9.160;2024-03-23T11:01:54;3.75;;;1.85;;
140;SDS011;65;48.778;9.160;2024-03-23T11:04:43;3.90;;;1.55;;
140;SDS011;65;48.778;9.160;2024-03-23T11:10:26;2.10;;;0.90;;
140;SDS011;65;48.778;9.160;2024-03-23T11:13:21;3.22;;;1.38;;
140;SDS011;65;48.778;9.160;2024-03-23T11:16:26;2.97;;;1.70;;
140;SDS011;65;48.778;9.160;2024-03-23T11:19:33;3.72;;;1.25;;
140;SDS011;65;48.778;9.160;2024-03-23T11:22:39;4.25;;;1.48;;
140;SDS011;65;48.778;9.160;2024-03-23T11:25:26;2.50;;;1.20;;
140;SDS011;65;48.778;9.160;2024-03-23T11:28:13;1.65;;;1.13;;
140;SDS011;65;48.778;9.160;2024-03-23T11:30:58;4.07;;;1.20;;
140;SDS011;65;48.778;9.160;2024-03-23T11:33:44;2.40;;;1.25;;
140;SDS011;65;48.778;9.160;2024-03-23T11:36:30;2.60;;;1.40;;
140;SDS011;65;48.778;9.160;2024-03-23T11:39:19;1.67;;;1.15;;
140;SDS011;65;48.778;9.160;2024-03-23T11:42:05;1.30;;;0.93;;
140;SDS011;65;48.778;9.160;2024-03-23T11:44:51;4.82;;;1.25;;
140;SDS011;65;48.778;9.160;2024-03-23T11:47:37;2.40;;;1.15;;
140;SDS011;65;48.778;9.160;2024-03-23T11:50:23;2.88;;;0.93;;
140;SDS011;65;48.778;9.160;2024-03-23T11:56:02;3.97;;;1.10;;
140;SDS011;65;48.778;9.160;2024-03-23T11:58:47;1.90;;;0.80;;
140;SDS011;65;48.778;9.160;2024-03-23T12:01:34;2.25;;;0.80;;
140;SDS011;65;48.778;9.160;2024-03-23T12:04:26;2.67;;;1.20;;
140;SDS011;65;48.778;9.160;2024-03-23T12:07:14;3.38;;;1.30;;
140;SDS011;65;48.778;9.160;2024-03-23T12:10:08;1.75;;;0.80;;
140;SDS011;65;48.778;9.160;2024-03-23T12:13:00;2.03;;;0.70;;
140;SDS011;65;48.778;9.160;2024-03-23T12:15:47;5.95;;;1.35;;
140;SDS011;65;48.778;9.160;2024-03-23T12:18:35;1.98;;;0.93;;
140;SDS011;65;48.778;9.160;2024-03-23T12:21:21;3.55;;;0.80;;
140;SDS011;65;48.778;9.160;2024-03-23T12:24:08;4.82;;;1.25;;
140;SDS011;65;48.778;9.160;2024-03-23T12:26:54;2.47;;;0.93;;
140;SDS011;65;48.778;9.160;2024-03-23T12:29:40;2.13;;;1.10;;
140;SDS011;65;48.778;9.160;2024-03-23T12:32:32;2.20;;;0.93;;
140;SDS011;65;48.778;9.160;2024-03-23T12:35:18;4.80;;;1.15;;
140;SDS011;65;48.778;9.160;2024-03-23T12:38:04;2.47;;;1.08;;
140;SDS011;65;48.778;9.160;2024-03-23T12:40:50;4.10;;;1.35;;
140;SDS011;65;48.778;9.160;2024-03-23T12:43:36;3.47;;;1.38;;
140;SDS011;65;48.778;9.160;2024-03-23T12:46:23;3.85;;;0.98;;
140;SDS011;65;48.778;9.160;2024-03-23T12:49:09;2.47;;;0.90;;
140;SDS011;65;48.778;9.160;2024-03-23T12:51:54;3.22;;;1.13;;
140;SDS011;65;48.778;9.160;2024-03-23T12:54:42;4.65;;;1.33;;
140;SDS011;65;48.778;9.160;2024-03-23T12:57:27;3.30;;;1.35;;
140;SDS011;65;48.778;9.160;2024-03-23T13:00:14;5.13;;;1.63;;
140;SDS011;65;48.778;9.160;2024-03-23T13:03:02;7.20;;;1.63;;
140;SDS011;65;48.778;9.160;2024-03-23T13:05:52;7.22;;;1.23;;
140;SDS011;65;48.778;9.160;2024-03-23T13:08:38;5.07;;;1.35;;
140;SDS011;65;48.778;9.160;2024-03-23T13:11:26;2.30;;;1.08;;
140;SDS011;65;48.778;9.160;2024-03-23T13:14:11;5.70;;;1.30;;
140;SDS011;65;48.778;9.160;2024-03-23T13:17:00;4.88;;;1.33;;
140;SDS011;65;48.778;9.160;2024-03-23T13:19:47;5.88;;;1.63;;
140;SDS011;65;48.778;9.160;2024-03-23T13:22:33;3.90;;;1.77;;
140;SDS011;65;48.778;9.160;2024-03-23T13:25:18;4.43;;;1.65;;
140;SDS011;65;48.778;9.160;2024-03-23T13:28:04;3.55;;;1.33;;
140;SDS011;65;48.778;9.160;2024-03-23T13:30:51;4.75;;;1.60;;
140;SDS011;65;48.778;9.160;2024-03-23T13:33:41;4.40;;;1.27;;
140;SDS011;65;48.778;9.160;2024-03-23T13:36:29;5.75;;;1.60;;
140;SDS011;65;48.778;9.160;2024-03-23T13:39:15;2.63;;;1.10;;
140;SDS011;65;48.778;9.160;2024-03-23T13:42:01;1.17;;;0.70;;
140;SDS011;65;48.778;9.160;2024-03-23T13:44:46;2.70;;;0.98;;
140;SDS011;65;48.778;9.160;2024-03-23T13:47:32;5.07;;;1.17;;
140;SDS011;65;48.778;9.160;2024-03-23T13:50:18;4.10;;;1.20;;
140;SDS011;65;48.778;9.160;2024-03-23T13:53:04;3.85;;;1.20;;
140;SDS011;65;48.778;9.160;2024-03-23T13:55:54;5.60;;;1.35;;
140;SDS011;65;48.778;9.160;2024-03-23T13:58:40;6.15;;;1.63;;
140;SDS011;65;48.778;9.160;2024-03-23T14:01:31;3.42;;;1.23;;
140;SDS011;65;48.778;9.160;2024-03-23T14:04:17;3.13;;;1.40;;
140;SDS011;65;48.778;9.160;2024-03-23T14:07:05;4.60;;;1.60;;
140;SDS011;65;48.778;9.160;2024-03-23T14:09:52;1.13;;;0.90;;
140;SDS011;65;48.778;9.160;2024-03-23T14:12:40;4.03;;;1.05;;
140;SDS011;65;48.778;9.160;2024-03-23T14:15:27;2.17;;;0.85;;
140;SDS011;65;48.778;9.160;2024-03-23T14:18:13;2.15;;;0.73;;
140;SDS011;65;48.778;9.160;2024-03-23T14:20:59;2.40;;;0.80;;
140;SDS011;65;48.778;9.160;2024-03-23T14:23:46;2.33;;;0.80;;
140;SDS011;65;48.778;9.160;2024-03-23T14:26:32;2.33;;;0.63;;
140;SDS011;65;48.778;9.160;2024-03-23T14:29:18;3.15;;;0.63;;
140;SDS011;65;48.778;9.160;2024-03-23T14:32:04;0.28;;;0.28;;
140;SDS011;65;48.778;9.160;2024-03-23T14:34:50;2.47;;;0.85;;
140;SDS011;65;48.778;9.160;2024-03-23T14:37:39;0.55;;;0.38;;
140;SDS011;65;48.778;9.160;2024-03-23T14:40:27;0.68;;;0.35;;
140;SDS011;65;48.778;9.160;2024-03-23T14:43:13;1.50;;;0.50;;
140;SDS011;65;48.778;9.160;2024-03-23T14:46:10;1.90;;;0.65;;
140;SDS011;65;48.778;9.160;2024-03-23T14:48:56;1.08;;;0.60;;
140;SDS011;65;48.778;9.160;2024-03-23T14:51:43;0.50;;;0.50;;
140;SDS011;65;48.778;9.160;2024-03-23T14:54:29;1.48;;;0.60;;
140;SDS011;65;48.778;9.160;2024-03-23T14:57:15;3.38;;;1.00;;
140;SDS011;65;48.778;9.160;2024-03-23T15:00:01;2.92;;;1.10;;
140;SDS011;65;48.778;9.160;2024-03-23T15:02:49;2.55;;;0.73;;
140;SDS011;65;48.778;9.160;2024-03-23T15:05:35;3.83;;;0.52;;
140;SDS011;65;48.778;9.160;2024-03-23T15:08:22;0.68;;;0.35;;
140;SDS011;65;48.778;9.160;2024-03-23T15:11:13;0.75;;;0.57;;
140;SDS011;65;48.778;9.160;2024-03-23T15:14:00;0.47;;;0.35;;
140;SDS011;65;48.778;9.160;2024-03-23T15:16:46;1.92;;;0.57;;
140;SDS011;65;48.778;9.160;2024-03-23T15:19:34;1.70;;;0.60;;
140;SDS011;65;48.778;9.160;2024-03-23T15:22:20;2.90;;;0.60;;
140;SDS011;65;48.778;9.160;2024-03-23T15:25:06;1.67;;;0.47;;
140;SDS011;65;48.778;9.160;2024-03-23T15:27:53;0.77;;;0.35;;
140;SDS011;65;48.778;9.160;2024-03-23T15:30:40;0.60;;;0.47;;
140;SDS011;65;48.778;9.160;2024-03-23T15:33:26;1.63;;;0.55;;
140;SDS011;65;48.778;9.160;2024-03-23T15:36:11;3.35;;;0.80;;
140;SDS011;65;48.778;9.160;2024-03-23T15:38:57;1.10;;;0.50;;
140;SDS011;65;48.778;9.160;2024-03-23T15:41:43;1.13;;;0.50;;
140;SDS011;65;48.778;9.160;2024-03-23T15:44:30;0.93;;;0.32;;
140;SDS011;65;48.778;9.160;2024-03-23T15:47:16;2.55;;;0.80;;
140;SDS011;65;48.778;9.160;2024-03-23T15:50:02;1.83;;;0.65;;
140;SDS011;65;48.778;9.160;2024-03-23T15:52:54;1.60;;;0.80;;
140;SDS011;65;48.778;9.160;2024-03-23T15:55:41;3.50;;;0.50;;
140;SDS011;65;48.778;9.160;2024-03-23T15:58:27;2.60;;;0.50;;
140;SDS011;65;48.778;9.160;2024-03-23T16:01:14;2.70;;;0.65;;
140;SDS011;65;48.778;9.160;2024-03-23T16:04:01;0.55;;;0.38;;
140;SDS011;65;48.778;9.160;2024-03-23T16:06:47;1.15;;;0.43;;
140;SDS011;65;48.778;9.160;2024-03-23T16:09:33;1.08;;;0.50;;
140;SDS011;65;48.778;9.160;2024-03-23T16:12:19;1.35;;;0.80;;
140;SDS011;65;48.778;9.160;2024-03-23T16:15:05;1.98;;;0.68;;
140;SDS011;65;48.778;9.160;2024-03-23T16:17:51;0.63;;;0.40;;
140;SDS011;65;48.778;9.160;2024-03-23T16:20:36;0.65;;;0.60;;
140;SDS011;65;48.778;9.160;2024-03-23T16:23:22;2.95;;;0.98;;
140;SDS011;65;48.778;9.160;2024-03-23T16:26:08;2.67;;;0.70;;
140;SDS011;65;48.778;9.160;2024-03-23T16:28:55;0.32;;;0.20;;
140;SDS011;65;48.778;9.160;2024-03-23T16:31:41;0.88;;;0.25;;
140;SDS011;65;48.778;9.160;2024-03-23T16:34:27;1.17;;;0.45;;
140;SDS011;65;48.778;9.160;2024-03-23T16:37:13;1.25;;;0.35;;
140;SDS011;65;48.778;9.160;2024-03-23T16:39:59;0.50;;;0.38;;
140;SDS011;65;48.778;9.160;2024-03-23T16:42:45;0.90;;;0.52;;
140;SDS011;65;48.778;9.160;2024-03-23T16:45:30;0.93;;;0.57;;
140;SDS011;65;48.778;9.160;2024-03-23T16:48:16;0.98;;;0.50;;
140;SDS011;65;48.778;9.160;2024-03-23T16:51:02;1.67;;;0.85;;
140;SDS011;65;48.778;9.160;2024-03-23T16:53:49;2.13;;;0.40;;
140;SDS011;65;48.778;9.160;2024-03-23T16:56:35;2.00;;;0.60;;
140;SDS011;65;48.778;9.160;2024-03-23T16:59:20;0.32;;;0.20;;
140;SDS011;65;48.778;9.160;2024-03-23T17:02:09;1.27;;;0.43;;
140;SDS011;65;48.778;9.160;2024-03-23T17:04:56;1.17;;;0.45;;
140;SDS011;65;48.778;9.160;2024-03-23T17:07:42;0.30;;;0.30;;
140;SDS011;65;48.778;9.160;2024-03-23T17:10:29;0.22;;;0.22;;
140;SDS011;65;48.778;9.160;2024-03-23T17:13:15;2.40;;;0.57;;
140;SDS011;65;48.778;9.160;2024-03-23T17:16:01;1.98;;;0.50;;
140;SDS011;65;48.778;9.160;2024-03-23T17:18:47;0.73;;;0.25;;
140;SDS011;65;48.778;9.160;2024-03-23T17:21:34;1.40;;;0.52;;
140;SDS011;65;48.778;9.160;2024-03-23T17:24:25;1.92;;;0.85;;
140;SDS011;65;48.778;9.160;2024-03-23T17:27:11;2.55;;;0.63;;
140;SDS011;65;48.778;9.160;2024-03-23T17:29:58;0.45;;;0.40;;
140;SDS011;65;48.778;9.160;2024-03-23T17:32:44;0.52;;;0.35;;
140;SDS011;65;48.778;9.160;2024-03-23T17:35:30;2.92;;;0.95;;
140;SDS011;65;48.778;9.160;2024-03-23T17:38:16;4.30;;;0.75;;
140;SDS011;65;48.778;9.160;2024-03-23T17:41:05;1.67;;;0.70;;
140;SDS011;65;48.778;9.160;2024-03-23T17:43:50;4.88;;;0.38;;
140;SDS011;65;48.778;9.160;2024-03-23T17:46:36;0.43;;;0.38;;
140;SDS011;65;48.778;9.160;2024-03-23T17:49:22;0.70;;;0.50;;
140;SDS011;65;48.778;9.160;2024-03-23T17:52:08;1.48;;;0.80;;
140;SDS011;65;48.778;9.160;2024-03-23T17:54:58;0.57;;;0.43;;
140;SDS011;65;48.778;9.160;2024-03-23T17:57:44;0.50;;;0.47;;
140;SDS011;65;48.778;9.160;2024-03-23T18:00:33;1.58;;;0.63;;
140;SDS011;65;48.778;9.160;2024-03-23T18:03:19;1.13;;;0.38;;
140;SDS011;65;48.778;9.160;2024-03-23T18:06:04;1.30;;;0.68;;
140;SDS011;65;48.778;9.160;2024-03-23T18:08:51;1.35;;;0.57;;
140;SDS011;65;48.778;9.160;2024-03-23T18:11:37;0.40;;;0.30;;
140;SDS011;65;48.778;9.160;2024-03-23T18:14:23;1.52;;;1.00;;
140;SDS011;65;48.778;9.160;2024-03-23T18:17:09;0.63;;;0.30;;
140;SDS011;65;48.778;9.160;2024-03-23T18:19:55;0.38;;;0.32;;
140;SDS011;65;48.778;9.160;2024-03-23T18:22:40;2.53;;;0.43;;
140;SDS011;65;48.778;9.160;2024-03-23T18:25:28;0.63;;;0.40;;
140;SDS011;65;48.778;9.160;2024-03-23T18:28:14;1.05;;;0.40;;
140;SDS011;65;48.778;9.160;2024-03-23T18:31:00;0.20;;;0.20;;
140;SDS011;65;48.778;9.160;2024-03-23T18:33:47;1.35;;;0.55;;
140;SDS011;65;48.778;9.160;2024-03-23T18:36:33;0.32;;;0.22;;
140;SDS011;65;48.778;9.160;2024-03-23T18:39:19;1.75;;;0.47;;
140;SDS011;65;48.778;9.160;2024-03-23T18:42:05;1.00;;;0.45;;
140;SDS011;65;48.778;9.160;2024-03-23T18:44:51;0.45;;;0.32;;
140;SDS011;65;48.778;9.160;2024-03-23T18:47:37;0.77;;;0.52;;
140;SDS011;65;48.778;9.160;2024-03-23T18:50:24;1.80;;;0.38;;
140;SDS011;65;48.778;9.160;2024-03-23T18:53:11;0.20;;;0.20;;
140;SDS011;65;48.778;9.160;2024-03-23T18:55:57;0.60;;;0.32;;
140;SDS011;65;48.778;9.160;2024-03-23T18:58:43;4.25;;;0.47;;
140;SDS011;65;48.778;9.160;2024-03-23T19:01:29;1.05;;;0.47;;
140;SDS011;65;48.778;9.160;2024-03-23T19:04:15;0.40;;;0.32;;